sensor_id;sensor_type;location;lat;lon;timestamp;P1;durP1;ratioP1;P2;durP2;ratioP2
18623;SDS011;9441;51.420;7.036;2022-12-07T00:00:52;48.00;;;25.97;;
18623;SDS011;9441;51.420;7.036;2022-12-07T00:01:54;51.13;;;25.83;;
18623;SDS011;9441;51.420;7.036;2022-12-07T00:02:56;48.73;;;26.17;;
18623;SDS011;9441;51.420;7.036;2022-12-07T00:03:58;51.50;;;27.23;;
18623;SDS011;9441;51.420;7.036;2022-12-07T00:05:05;52.13;;;25.20;;
18623;SDS011;9441;51.420;7.036;2022-12-07T00:06:06;47.87;;;24.77;;
18623;SDS011;9441;51.420;7.036;2022-12-07T00:07:09;48.17;;;25.53;;
18623;SDS011;9441;51.420;7.036;2022-12-07T00:08:10;44.13;;;24.70;;
18623;SDS011;9441;51.420;7.036;2022-12-07T00:09:14;54.03;;;26.67;;
18623;SDS011;9441;51.420;7.036;2022-12-07T00:10:16;47.67;;;26.50;;
18623;SDS011;9441;51.420;7.036;2022-12-07T00:11:18;49.20;;;25.57;;
18623;SDS011;9441;51.420;7.036;2022-12-07T00:12:20;47.50;;;25.13;;
18623;SDS011;9441;51.420;7.036;2022-12-07T00:13:22;54.73;;;26.90;;
18623;SDS011;9441;51.420;7.036;2022-12-07T00:14:23;49.60;;;26.33;;
18623;SDS011;9441;51.420;7.036;2022-12-07T00:15:26;49.73;;;25.37;;
18623;SDS011;9441;51.420;7.036;2022-12-07T00:16:29;54.67;;;26.60;;
18623;SDS011;9441;51.420;7.036;2022-12-07T00:17:32;47.43;;;25.47;;
18623;SDS011;9441;51.420;7.036;2022-12-07T00:18:33;54.70;;;25.33;;
18623;SDS011;9441;51.420;7.036;2022-12-07T00:19:35;50.53;;;25.53;;
18623;SDS011;9441;51.420;7.036;2022-12-07T00:20:36;53.17;;;26.77;;
18623;SDS011;9441;51.420;7.036;2022-12-07T00:21:38;51.63;;;27.17;;
18623;SDS011;9441;51.420;7.036;2022-12-07T00:22:40;54.50;;;26.40;;
18623;SDS011;9441;51.420;7.036;2022-12-07T00:23:42;47.90;;;26.70;;
18623;SDS011;9441;51.420;7.036;2022-12-07T00:24:44;53.30;;;27.00;;
18623;SDS011;9441;51.420;7.036;2022-12-07T00:25:46;54.83;;;26.90;;
18623;SDS011;9441;51.420;7.036;2022-12-07T00:26:49;54.63;;;27.20;;
18623;SDS011;9441;51.420;7.036;2022-12-07T00:27:51;56.93;;;27.30;;
18623;SDS011;9441;51.420;7.036;2022-12-07T00:28:53;57.87;;;27.77;;
18623;SDS011;9441;51.420;7.036;2022-12-07T00:29:56;59.77;;;27.60;;
18623;SDS011;9441;51.420;7.036;2022-12-07T00:31:00;56.20;;;27.90;;
18623;SDS011;9441;51.420;7.036;2022-12-07T00:32:04;55.67;;;28.47;;
18623;SDS011;9441;51.420;7.036;2022-12-07T00:33:05;58.10;;;28.43;;
18623;SDS011;9441;51.420;7.036;2022-12-07T00:34:07;59.27;;;30.03;;
18623;SDS011;9441;51.420;7.036;2022-12-07T00:35:13;59.60;;;28.90;;
18623;SDS011;9441;51.420;7.036;2022-12-07T00:36:16;60.63;;;29.83;;
18623;SDS011;9441;51.420;7.036;2022-12-07T00:37:18;58.97;;;29.13;;
18623;SDS011;9441;51.420;7.036;2022-12-07T00:38:20;63.30;;;29.73;;
18623;SDS011;9441;51.420;7.036;2022-12-07T00:39:21;61.47;;;30.10;;
18623;SDS011;9441;51.420;7.036;2022-12-07T00:40:23;57.57;;;30.37;;
18623;SDS011;9441;51.420;7.036;2022-12-07T00:41:24;64.93;;;29.97;;
18623;SDS011;9441;51.420;7.036;2022-12-07T00:42:28;68.27;;;31.40;;
18623;SDS011;9441;51.420;7.036;2022-12-07T00:43:29;63.33;;;31.33;;
18623;SDS011;9441;51.420;7.036;2022-12-07T00:44:31;66.57;;;32.37;;
18623;SDS011;9441;51.420;7.036;2022-12-07T00:45:32;64.27;;;32.57;;
18623;SDS011;9441;51.420;7.036;2022-12-07T00:46:35;62.47;;;31.83;;
18623;SDS011;9441;51.420;7.036;2022-12-07T00:47:36;67.93;;;32.67;;
18623;SDS011;9441;51.420;7.036;2022-12-07T00:48:38;61.23;;;31.47;;
18623;SDS011;9441;51.420;7.036;2022-12-07T00:49:39;69.30;;;32.77;;
18623;SDS011;9441;51.420;7.036;2022-12-07T00:50:41;67.97;;;32.33;;
18623;SDS011;9441;51.420;7.036;2022-12-07T00:51:42;65.53;;;31.93;;
18623;SDS011;9441;51.420;7.036;2022-12-07T00:52:44;72.70;;;35.67;;
18623;SDS011;9441;51.420;7.036;2022-12-07T00:53:45;71.93;;;35.07;;
18623;SDS011;9441;51.420;7.036;2022-12-07T00:54:47;74.77;;;34.90;;
18623;SDS011;9441;51.420;7.036;2022-12-07T00:55:48;72.23;;;33.83;;
18623;SDS011;9441;51.420;7.036;2022-12-07T00:56:50;68.63;;;34.33;;
18623;SDS011;9441;51.420;7.036;2022-12-07T00:57:51;74.37;;;35.17;;
18623;SDS011;9441;51.420;7.036;2022-12-07T00:58:53;72.53;;;34.40;;
18623;SDS011;9441;51.420;7.036;2022-12-07T00:59:55;69.73;;;33.70;;
18623;SDS011;9441;51.420;7.036;2022-12-07T01:00:59;73.80;;;34.93;;
18623;SDS011;9441;51.420;7.036;2022-12-07T01:02:02;73.67;;;34.67;;
18623;SDS011;9441;51.420;7.036;2022-12-07T01:03:04;72.17;;;33.90;;
18623;SDS011;9441;51.420;7.036;2022-12-07T01:04:05;70.57;;;34.73;;
18623;SDS011;9441;51.420;7.036;2022-12-07T01:05:08;70.97;;;33.87;;
18623;SDS011;9441;51.420;7.036;2022-12-07T01:06:09;74.67;;;36.30;;
18623;SDS011;9441;51.420;7.036;2022-12-07T01:07:14;72.97;;;33.87;;
18623;SDS011;9441;51.420;7.036;2022-12-07T01:08:15;67.57;;;34.30;;
18623;SDS011;9441;51.420;7.036;2022-12-07T01:09:17;73.43;;;34.43;;
18623;SDS011;9441;51.420;7.036;2022-12-07T01:10:18;80.33;;;35.37;;
18623;SDS011;9441;51.420;7.036;2022-12-07T01:11:21;76.03;;;35.37;;
18623;SDS011;9441;51.420;7.036;2022-12-07T01:12:24;80.60;;;36.83;;
18623;SDS011;9441;51.420;7.036;2022-12-07T01:13:26;81.47;;;36.97;;
18623;SDS011;9441;51.420;7.036;2022-12-07T01:14:28;77.90;;;37.07;;
18623;SDS011;9441;51.420;7.036;2022-12-07T01:15:30;75.13;;;37.10;;
18623;SDS011;9441;51.420;7.036;2022-12-07T01:16:31;80.03;;;36.83;;
18623;SDS011;9441;51.420;7.036;2022-12-07T01:17:35;75.53;;;37.17;;
18623;SDS011;9441;51.420;7.036;2022-12-07T01:18:36;76.07;;;37.10;;
18623;SDS011;9441;51.420;7.036;2022-12-07T01:19:38;77.33;;;36.37;;
18623;SDS011;9441;51.420;7.036;2022-12-07T01:20:39;87.20;;;37.60;;
18623;SDS011;9441;51.420;7.036;2022-12-07T01:21:41;82.43;;;38.60;;
18623;SDS011;9441;51.420;7.036;2022-12-07T01:22:43;78.67;;;36.50;;
18623;SDS011;9441;51.420;7.036;2022-12-07T01:23:44;77.93;;;38.00;;
18623;SDS011;9441;51.420;7.036;2022-12-07T01:24:46;76.60;;;36.47;;
18623;SDS011;9441;51.420;7.036;2022-12-07T01:25:53;79.77;;;37.77;;
18623;SDS011;9441;51.420;7.036;2022-12-07T01:26:55;86.43;;;37.50;;
18623;SDS011;9441;51.420;7.036;2022-12-07T01:27:57;77.73;;;37.63;;
18623;SDS011;9441;51.420;7.036;2022-12-07T01:28:58;87.93;;;38.17;;
18623;SDS011;9441;51.420;7.036;2022-12-07T01:30:01;87.67;;;38.83;;
18623;SDS011;9441;51.420;7.036;2022-12-07T01:31:05;87.20;;;39.20;;
18623;SDS011;9441;51.420;7.036;2022-12-07T01:32:08;81.53;;;37.90;;
18623;SDS011;9441;51.420;7.036;2022-12-07T01:33:10;82.23;;;38.17;;
18623;SDS011;9441;51.420;7.036;2022-12-07T01:34:12;85.80;;;39.43;;
18623;SDS011;9441;51.420;7.036;2022-12-07T01:35:14;86.07;;;38.57;;
18623;SDS011;9441;51.420;7.036;2022-12-07T01:36:16;89.00;;;38.87;;
18623;SDS011;9441;51.420;7.036;2022-12-07T01:37:20;85.77;;;38.07;;
18623;SDS011;9441;51.420;7.036;2022-12-07T01:38:21;93.37;;;38.70;;
18623;SDS011;9441;51.420;7.036;2022-12-07T01:39:23;86.63;;;38.43;;
18623;SDS011;9441;51.420;7.036;2022-12-07T01:40:27;89.77;;;39.97;;
18623;SDS011;9441;51.420;7.036;2022-12-07T01:41:28;89.30;;;39.00;;
18623;SDS011;9441;51.420;7.036;2022-12-07T01:42:32;90.53;;;40.60;;
18623;SDS011;9441;51.420;7.036;2022-12-07T01:43:33;93.53;;;39.63;;
18623;SDS011;9441;51.420;7.036;2022-12-07T01:46:09;95.67;;;39.40;;
18623;SDS011;9441;51.420;7.036;2022-12-07T01:47:11;85.63;;;39.03;;
18623;SDS011;9441;51.420;7.036;2022-12-07T01:48:14;86.37;;;38.93;;
18623;SDS011;9441;51.420;7.036;2022-12-07T01:49:22;91.27;;;39.53;;
18623;SDS011;9441;51.420;7.036;2022-12-07T01:50:27;86.63;;;38.60;;
18623;SDS011;9441;51.420;7.036;2022-12-07T01:51:32;89.37;;;38.57;;
18623;SDS011;9441;51.420;7.036;2022-12-07T01:52:33;92.60;;;39.93;;
18623;SDS011;9441;51.420;7.036;2022-12-07T01:53:40;88.57;;;39.30;;
18623;SDS011;9441;51.420;7.036;2022-12-07T01:54:44;91.87;;;39.77;;
18623;SDS011;9441;51.420;7.036;2022-12-07T01:55:47;90.23;;;39.17;;
18623;SDS011;9441;51.420;7.036;2022-12-07T01:56:52;94.50;;;38.97;;
18623;SDS011;9441;51.420;7.036;2022-12-07T01:57:57;94.23;;;40.30;;
18623;SDS011;9441;51.420;7.036;2022-12-07T01:58:58;98.30;;;39.47;;
18623;SDS011;9441;51.420;7.036;2022-12-07T02:00:02;88.80;;;38.97;;
18623;SDS011;9441;51.420;7.036;2022-12-07T02:01:12;90.73;;;39.00;;
18623;SDS011;9441;51.420;7.036;2022-12-07T02:02:17;86.17;;;38.07;;
18623;SDS011;9441;51.420;7.036;2022-12-07T02:03:24;87.43;;;37.83;;
18623;SDS011;9441;51.420;7.036;2022-12-07T02:04:30;91.90;;;38.07;;
18623;SDS011;9441;51.420;7.036;2022-12-07T02:05:33;95.10;;;40.37;;
18623;SDS011;9441;51.420;7.036;2022-12-07T02:06:35;87.90;;;38.30;;
18623;SDS011;9441;51.420;7.036;2022-12-07T02:07:38;88.47;;;39.13;;
18623;SDS011;9441;51.420;7.036;2022-12-07T02:08:39;87.97;;;38.80;;
18623;SDS011;9441;51.420;7.036;2022-12-07T02:09:42;91.60;;;40.40;;
18623;SDS011;9441;51.420;7.036;2022-12-07T02:10:43;89.80;;;38.27;;
18623;SDS011;9441;51.420;7.036;2022-12-07T02:11:45;83.40;;;38.47;;
18623;SDS011;9441;51.420;7.036;2022-12-07T02:12:49;83.77;;;38.10;;
18623;SDS011;9441;51.420;7.036;2022-12-07T02:13:52;88.33;;;38.07;;
18623;SDS011;9441;51.420;7.036;2022-12-07T02:14:55;89.87;;;40.37;;
18623;SDS011;9441;51.420;7.036;2022-12-07T02:16:05;91.37;;;38.70;;
18623;SDS011;9441;51.420;7.036;2022-12-07T02:17:17;89.70;;;37.97;;
18623;SDS011;9441;51.420;7.036;2022-12-07T02:18:31;88.67;;;39.63;;
18623;SDS011;9441;51.420;7.036;2022-12-07T02:20:09;93.73;;;39.20;;
18623;SDS011;9441;51.420;7.036;2022-12-07T02:21:20;89.87;;;37.77;;
18623;SDS011;9441;51.420;7.036;2022-12-07T02:22:44;92.37;;;39.30;;
18623;SDS011;9441;51.420;7.036;2022-12-07T02:24:11;93.07;;;38.03;;
18623;SDS011;9441;51.420;7.036;2022-12-07T02:25:22;94.00;;;38.57;;
18623;SDS011;9441;51.420;7.036;2022-12-07T02:28:19;95.40;;;38.60;;
18623;SDS011;9441;51.420;7.036;2022-12-07T02:29:29;91.67;;;40.10;;
18623;SDS011;9441;51.420;7.036;2022-12-07T02:30:34;93.50;;;39.53;;
18623;SDS011;9441;51.420;7.036;2022-12-07T02:31:41;102.40;;;41.03;;
18623;SDS011;9441;51.420;7.036;2022-12-07T02:32:50;102.93;;;41.37;;
18623;SDS011;9441;51.420;7.036;2022-12-07T02:33:57;101.83;;;41.27;;
18623;SDS011;9441;51.420;7.036;2022-12-07T02:35:08;92.80;;;40.07;;
18623;SDS011;9441;51.420;7.036;2022-12-07T02:36:14;98.60;;;39.97;;
18623;SDS011;9441;51.420;7.036;2022-12-07T02:37:26;93.20;;;39.33;;
18623;SDS011;9441;51.420;7.036;2022-12-07T02:38:35;95.70;;;39.37;;
18623;SDS011;9441;51.420;7.036;2022-12-07T02:39:40;93.07;;;39.37;;
18623;SDS011;9441;51.420;7.036;2022-12-07T02:40:46;94.50;;;39.00;;
18623;SDS011;9441;51.420;7.036;2022-12-07T02:41:54;99.50;;;40.27;;
18623;SDS011;9441;51.420;7.036;2022-12-07T02:43:01;94.43;;;39.27;;
18623;SDS011;9441;51.420;7.036;2022-12-07T02:44:06;89.77;;;38.00;;
18623;SDS011;9441;51.420;7.036;2022-12-07T02:45:10;97.47;;;38.97;;
18623;SDS011;9441;51.420;7.036;2022-12-07T02:46:17;94.93;;;40.53;;
18623;SDS011;9441;51.420;7.036;2022-12-07T02:47:21;94.90;;;39.07;;
18623;SDS011;9441;51.420;7.036;2022-12-07T02:48:26;99.37;;;39.43;;
18623;SDS011;9441;51.420;7.036;2022-12-07T02:49:28;99.33;;;40.10;;
18623;SDS011;9441;51.420;7.036;2022-12-07T02:50:31;99.30;;;39.13;;
18623;SDS011;9441;51.420;7.036;2022-12-07T02:51:32;93.10;;;40.03;;
18623;SDS011;9441;51.420;7.036;2022-12-07T02:52:35;89.00;;;36.67;;
18623;SDS011;9441;51.420;7.036;2022-12-07T02:53:36;91.50;;;37.70;;
18623;SDS011;9441;51.420;7.036;2022-12-07T02:54:40;97.03;;;38.17;;
18623;SDS011;9441;51.420;7.036;2022-12-07T02:55:41;89.93;;;37.77;;
18623;SDS011;9441;51.420;7.036;2022-12-07T02:56:45;84.93;;;36.83;;
18623;SDS011;9441;51.420;7.036;2022-12-07T02:57:53;89.03;;;37.43;;
18623;SDS011;9441;51.420;7.036;2022-12-07T02:59:07;92.07;;;37.07;;
18623;SDS011;9441;51.420;7.036;2022-12-07T03:00:16;77.30;;;34.40;;
18623;SDS011;9441;51.420;7.036;2022-12-07T03:01:23;90.53;;;36.63;;
18623;SDS011;9441;51.420;7.036;2022-12-07T03:02:33;88.00;;;37.43;;
18623;SDS011;9441;51.420;7.036;2022-12-07T03:03:43;84.80;;;35.93;;
18623;SDS011;9441;51.420;7.036;2022-12-07T03:04:51;95.33;;;36.03;;
18623;SDS011;9441;51.420;7.036;2022-12-07T03:06:11;71.97;;;34.00;;
18623;SDS011;9441;51.420;7.036;2022-12-07T03:07:18;81.43;;;34.57;;
18623;SDS011;9441;51.420;7.036;2022-12-07T03:08:37;77.43;;;34.43;;
18623;SDS011;9441;51.420;7.036;2022-12-07T03:09:48;82.80;;;34.80;;
18623;SDS011;9441;51.420;7.036;2022-12-07T03:10:59;80.23;;;34.63;;
18623;SDS011;9441;51.420;7.036;2022-12-07T03:12:06;81.77;;;35.30;;
18623;SDS011;9441;51.420;7.036;2022-12-07T03:13:14;80.73;;;34.83;;
18623;SDS011;9441;51.420;7.036;2022-12-07T03:14:24;77.10;;;34.27;;
18623;SDS011;9441;51.420;7.036;2022-12-07T03:15:33;82.27;;;34.60;;
18623;SDS011;9441;51.420;7.036;2022-12-07T03:16:39;79.37;;;35.67;;
18623;SDS011;9441;51.420;7.036;2022-12-07T03:17:44;85.97;;;37.00;;
18623;SDS011;9441;51.420;7.036;2022-12-07T03:18:50;79.73;;;36.43;;
18623;SDS011;9441;51.420;7.036;2022-12-07T03:19:56;89.23;;;36.93;;
18623;SDS011;9441;51.420;7.036;2022-12-07T03:21:00;85.60;;;36.70;;
18623;SDS011;9441;51.420;7.036;2022-12-07T03:22:08;76.20;;;36.67;;
18623;SDS011;9441;51.420;7.036;2022-12-07T03:23:11;84.10;;;37.43;;
18623;SDS011;9441;51.420;7.036;2022-12-07T03:24:18;84.17;;;37.70;;
18623;SDS011;9441;51.420;7.036;2022-12-07T03:25:21;81.63;;;37.27;;
18623;SDS011;9441;51.420;7.036;2022-12-07T03:26:24;90.70;;;38.17;;
18623;SDS011;9441;51.420;7.036;2022-12-07T03:27:32;82.97;;;36.93;;
18623;SDS011;9441;51.420;7.036;2022-12-07T03:28:39;84.17;;;37.17;;
18623;SDS011;9441;51.420;7.036;2022-12-07T03:29:47;95.07;;;38.17;;
18623;SDS011;9441;51.420;7.036;2022-12-07T03:30:55;85.67;;;37.63;;
18623;SDS011;9441;51.420;7.036;2022-12-07T03:31:58;83.03;;;36.90;;
18623;SDS011;9441;51.420;7.036;2022-12-07T03:33:04;92.63;;;37.60;;
18623;SDS011;9441;51.420;7.036;2022-12-07T03:34:09;87.73;;;37.53;;
18623;SDS011;9441;51.420;7.036;2022-12-07T03:35:16;95.27;;;38.10;;
18623;SDS011;9441;51.420;7.036;2022-12-07T03:36:22;99.43;;;36.37;;
18623;SDS011;9441;51.420;7.036;2022-12-07T03:37:31;89.63;;;35.73;;
18623;SDS011;9441;51.420;7.036;2022-12-07T03:38:37;82.57;;;37.20;;
18623;SDS011;9441;51.420;7.036;2022-12-07T03:39:44;82.13;;;34.83;;
18623;SDS011;9441;51.420;7.036;2022-12-07T03:40:52;90.30;;;35.97;;
18623;SDS011;9441;51.420;7.036;2022-12-07T03:42:01;84.20;;;36.17;;
18623;SDS011;9441;51.420;7.036;2022-12-07T03:43:05;86.93;;;36.80;;
18623;SDS011;9441;51.420;7.036;2022-12-07T03:44:08;88.10;;;37.10;;
18623;SDS011;9441;51.420;7.036;2022-12-07T03:45:09;95.57;;;36.77;;
18623;SDS011;9441;51.420;7.036;2022-12-07T03:46:17;89.60;;;37.43;;
18623;SDS011;9441;51.420;7.036;2022-12-07T03:47:22;93.23;;;35.90;;
18623;SDS011;9441;51.420;7.036;2022-12-07T03:48:32;93.50;;;36.90;;
18623;SDS011;9441;51.420;7.036;2022-12-07T03:49:37;93.60;;;37.43;;
18623;SDS011;9441;51.420;7.036;2022-12-07T03:50:43;102.17;;;37.77;;
18623;SDS011;9441;51.420;7.036;2022-12-07T03:51:51;90.97;;;36.77;;
18623;SDS011;9441;51.420;7.036;2022-12-07T03:52:59;90.50;;;35.90;;
18623;SDS011;9441;51.420;7.036;2022-12-07T03:54:07;94.17;;;35.47;;
18623;SDS011;9441;51.420;7.036;2022-12-07T03:55:14;94.83;;;36.43;;
18623;SDS011;9441;51.420;7.036;2022-12-07T03:56:19;85.47;;;35.93;;
18623;SDS011;9441;51.420;7.036;2022-12-07T03:57:23;98.43;;;36.23;;
18623;SDS011;9441;51.420;7.036;2022-12-07T03:58:26;90.73;;;34.70;;
18623;SDS011;9441;51.420;7.036;2022-12-07T03:59:29;93.43;;;36.33;;
18623;SDS011;9441;51.420;7.036;2022-12-07T04:00:30;88.10;;;36.73;;
18623;SDS011;9441;51.420;7.036;2022-12-07T04:01:34;87.33;;;36.03;;
18623;SDS011;9441;51.420;7.036;2022-12-07T04:02:35;91.60;;;36.10;;
18623;SDS011;9441;51.420;7.036;2022-12-07T04:03:37;94.87;;;35.47;;
18623;SDS011;9441;51.420;7.036;2022-12-07T04:04:38;92.90;;;36.67;;
18623;SDS011;9441;51.420;7.036;2022-12-07T04:05:41;99.93;;;37.40;;
18623;SDS011;9441;51.420;7.036;2022-12-07T04:06:43;99.20;;;34.80;;
18623;SDS011;9441;51.420;7.036;2022-12-07T04:07:45;96.47;;;35.67;;
18623;SDS011;9441;51.420;7.036;2022-12-07T04:08:46;97.47;;;36.07;;
18623;SDS011;9441;51.420;7.036;2022-12-07T04:09:48;102.83;;;36.70;;
18623;SDS011;9441;51.420;7.036;2022-12-07T04:10:49;109.43;;;37.60;;
18623;SDS011;9441;51.420;7.036;2022-12-07T04:11:51;103.30;;;36.60;;
18623;SDS011;9441;51.420;7.036;2022-12-07T04:12:52;98.40;;;36.87;;
18623;SDS011;9441;51.420;7.036;2022-12-07T04:13:54;99.83;;;37.00;;
18623;SDS011;9441;51.420;7.036;2022-12-07T04:15:21;93.63;;;35.37;;
18623;SDS011;9441;51.420;7.036;2022-12-07T04:16:23;97.50;;;35.27;;
18623;SDS011;9441;51.420;7.036;2022-12-07T04:17:26;98.33;;;37.00;;
18623;SDS011;9441;51.420;7.036;2022-12-07T04:18:28;94.30;;;36.33;;
18623;SDS011;9441;51.420;7.036;2022-12-07T04:19:29;108.47;;;37.10;;
18623;SDS011;9441;51.420;7.036;2022-12-07T04:20:33;90.73;;;36.83;;
18623;SDS011;9441;51.420;7.036;2022-12-07T04:21:33;100.67;;;36.40;;
18623;SDS011;9441;51.420;7.036;2022-12-07T04:22:35;84.97;;;33.90;;
18623;SDS011;9441;51.420;7.036;2022-12-07T04:23:36;84.53;;;35.10;;
18623;SDS011;9441;51.420;7.036;2022-12-07T04:24:38;91.37;;;35.57;;
18623;SDS011;9441;51.420;7.036;2022-12-07T04:25:39;85.53;;;34.50;;
18623;SDS011;9441;51.420;7.036;2022-12-07T04:26:42;87.43;;;34.13;;
18623;SDS011;9441;51.420;7.036;2022-12-07T04:27:44;78.63;;;32.43;;
18623;SDS011;9441;51.420;7.036;2022-12-07T04:28:46;85.33;;;33.43;;
18623;SDS011;9441;51.420;7.036;2022-12-07T04:29:47;88.43;;;32.53;;
18623;SDS011;9441;51.420;7.036;2022-12-07T04:30:49;86.00;;;33.40;;
18623;SDS011;9441;51.420;7.036;2022-12-07T04:31:50;86.50;;;32.37;;
18623;SDS011;9441;51.420;7.036;2022-12-07T04:32:53;80.07;;;32.33;;
18623;SDS011;9441;51.420;7.036;2022-12-07T04:33:55;73.57;;;31.57;;
18623;SDS011;9441;51.420;7.036;2022-12-07T04:34:56;75.57;;;30.80;;
18623;SDS011;9441;51.420;7.036;2022-12-07T04:35:58;79.13;;;32.37;;
18623;SDS011;9441;51.420;7.036;2022-12-07T04:36:59;72.50;;;31.70;;
18623;SDS011;9441;51.420;7.036;2022-12-07T04:38:00;78.00;;;31.23;;
18623;SDS011;9441;51.420;7.036;2022-12-07T04:39:03;76.70;;;31.50;;
18623;SDS011;9441;51.420;7.036;2022-12-07T04:40:06;74.83;;;30.37;;
18623;SDS011;9441;51.420;7.036;2022-12-07T04:41:09;77.60;;;30.47;;
18623;SDS011;9441;51.420;7.036;2022-12-07T04:42:10;69.17;;;30.07;;
18623;SDS011;9441;51.420;7.036;2022-12-07T04:43:13;70.00;;;29.57;;
18623;SDS011;9441;51.420;7.036;2022-12-07T04:44:14;69.33;;;31.03;;
18623;SDS011;9441;51.420;7.036;2022-12-07T04:45:17;75.70;;;31.03;;
18623;SDS011;9441;51.420;7.036;2022-12-07T04:46:18;74.27;;;31.50;;
18623;SDS011;9441;51.420;7.036;2022-12-07T04:47:20;72.17;;;31.00;;
18623;SDS011;9441;51.420;7.036;2022-12-07T04:48:22;76.27;;;31.07;;
18623;SDS011;9441;51.420;7.036;2022-12-07T04:49:24;82.83;;;31.93;;
18623;SDS011;9441;51.420;7.036;2022-12-07T04:50:25;76.50;;;30.40;;
18623;SDS011;9441;51.420;7.036;2022-12-07T04:51:28;80.97;;;32.47;;
18623;SDS011;9441;51.420;7.036;2022-12-07T04:52:29;79.33;;;31.60;;
18623;SDS011;9441;51.420;7.036;2022-12-07T04:53:31;75.70;;;31.37;;
18623;SDS011;9441;51.420;7.036;2022-12-07T04:54:32;80.87;;;31.40;;
18623;SDS011;9441;51.420;7.036;2022-12-07T04:55:34;89.50;;;32.20;;
18623;SDS011;9441;51.420;7.036;2022-12-07T04:56:36;79.50;;;31.43;;
18623;SDS011;9441;51.420;7.036;2022-12-07T04:57:39;79.10;;;31.13;;
18623;SDS011;9441;51.420;7.036;2022-12-07T04:58:41;84.80;;;33.17;;
18623;SDS011;9441;51.420;7.036;2022-12-07T04:59:42;72.77;;;29.87;;
18623;SDS011;9441;51.420;7.036;2022-12-07T05:00:44;81.40;;;30.13;;
18623;SDS011;9441;51.420;7.036;2022-12-07T05:01:45;87.17;;;32.67;;
18623;SDS011;9441;51.420;7.036;2022-12-07T05:02:47;70.67;;;29.70;;
18623;SDS011;9441;51.420;7.036;2022-12-07T05:03:50;69.10;;;29.17;;
18623;SDS011;9441;51.420;7.036;2022-12-07T05:04:52;76.97;;;31.17;;
18623;SDS011;9441;51.420;7.036;2022-12-07T05:05:53;78.83;;;31.20;;
18623;SDS011;9441;51.420;7.036;2022-12-07T05:06:55;77.83;;;29.97;;
18623;SDS011;9441;51.420;7.036;2022-12-07T05:07:56;68.90;;;30.47;;
18623;SDS011;9441;51.420;7.036;2022-12-07T05:08:58;81.97;;;30.83;;
18623;SDS011;9441;51.420;7.036;2022-12-07T05:09:59;78.17;;;30.33;;
18623;SDS011;9441;51.420;7.036;2022-12-07T05:11:01;80.57;;;29.50;;
18623;SDS011;9441;51.420;7.036;2022-12-07T05:12:03;77.90;;;30.60;;
18623;SDS011;9441;51.420;7.036;2022-12-07T05:13:05;88.90;;;30.73;;
18623;SDS011;9441;51.420;7.036;2022-12-07T05:14:07;76.23;;;31.67;;
18623;SDS011;9441;51.420;7.036;2022-12-07T05:15:11;76.87;;;30.10;;
18623;SDS011;9441;51.420;7.036;2022-12-07T05:16:13;76.13;;;29.33;;
18623;SDS011;9441;51.420;7.036;2022-12-07T05:17:14;82.53;;;30.87;;
18623;SDS011;9441;51.420;7.036;2022-12-07T05:18:16;85.03;;;31.33;;
18623;SDS011;9441;51.420;7.036;2022-12-07T05:19:19;79.20;;;29.63;;
18623;SDS011;9441;51.420;7.036;2022-12-07T05:20:21;76.77;;;30.03;;
18623;SDS011;9441;51.420;7.036;2022-12-07T05:21:22;77.93;;;30.90;;
18623;SDS011;9441;51.420;7.036;2022-12-07T05:22:24;73.57;;;30.83;;
18623;SDS011;9441;51.420;7.036;2022-12-07T05:23:28;74.17;;;29.30;;
18623;SDS011;9441;51.420;7.036;2022-12-07T05:24:29;72.20;;;29.60;;
18623;SDS011;9441;51.420;7.036;2022-12-07T05:25:31;76.10;;;28.77;;
18623;SDS011;9441;51.420;7.036;2022-12-07T05:26:32;75.07;;;30.40;;
18623;SDS011;9441;51.420;7.036;2022-12-07T05:27:34;81.20;;;30.10;;
18623;SDS011;9441;51.420;7.036;2022-12-07T05:28:35;69.90;;;29.87;;
18623;SDS011;9441;51.420;7.036;2022-12-07T05:29:37;67.93;;;28.90;;
18623;SDS011;9441;51.420;7.036;2022-12-07T05:30:38;67.33;;;27.77;;
18623;SDS011;9441;51.420;7.036;2022-12-07T05:31:41;69.53;;;27.77;;
18623;SDS011;9441;51.420;7.036;2022-12-07T05:32:42;74.83;;;28.07;;
18623;SDS011;9441;51.420;7.036;2022-12-07T05:33:44;79.03;;;28.03;;
18623;SDS011;9441;51.420;7.036;2022-12-07T05:34:46;72.33;;;28.90;;
18623;SDS011;9441;51.420;7.036;2022-12-07T05:35:48;72.07;;;28.30;;
18623;SDS011;9441;51.420;7.036;2022-12-07T05:36:49;74.27;;;28.77;;
18623;SDS011;9441;51.420;7.036;2022-12-07T05:37:51;71.43;;;29.40;;
18623;SDS011;9441;51.420;7.036;2022-12-07T05:38:52;68.97;;;28.83;;
18623;SDS011;9441;51.420;7.036;2022-12-07T05:39:54;74.83;;;28.33;;
18623;SDS011;9441;51.420;7.036;2022-12-07T05:40:55;66.27;;;29.03;;
18623;SDS011;9441;51.420;7.036;2022-12-07T05:42:01;69.93;;;28.60;;
18623;SDS011;9441;51.420;7.036;2022-12-07T05:43:14;67.50;;;28.10;;
18623;SDS011;9441;51.420;7.036;2022-12-07T05:44:16;79.70;;;30.07;;
18623;SDS011;9441;51.420;7.036;2022-12-07T05:45:17;69.87;;;27.97;;
18623;SDS011;9441;51.420;7.036;2022-12-07T05:46:19;73.20;;;28.37;;
18623;SDS011;9441;51.420;7.036;2022-12-07T05:47:20;75.93;;;28.73;;
18623;SDS011;9441;51.420;7.036;2022-12-07T05:48:22;72.67;;;27.73;;
18623;SDS011;9441;51.420;7.036;2022-12-07T05:49:24;64.23;;;26.73;;
18623;SDS011;9441;51.420;7.036;2022-12-07T05:50:27;71.00;;;27.13;;
18623;SDS011;9441;51.420;7.036;2022-12-07T05:51:34;63.87;;;26.33;;
18623;SDS011;9441;51.420;7.036;2022-12-07T05:52:35;66.20;;;26.13;;
18623;SDS011;9441;51.420;7.036;2022-12-07T05:53:37;63.97;;;25.73;;
18623;SDS011;9441;51.420;7.036;2022-12-07T05:54:38;65.77;;;26.23;;
18623;SDS011;9441;51.420;7.036;2022-12-07T05:55:40;61.30;;;27.00;;
18623;SDS011;9441;51.420;7.036;2022-12-07T05:56:41;70.53;;;27.00;;
18623;SDS011;9441;51.420;7.036;2022-12-07T05:57:43;79.10;;;25.97;;
18623;SDS011;9441;51.420;7.036;2022-12-07T05:59:04;65.23;;;26.57;;
18623;SDS011;9441;51.420;7.036;2022-12-07T06:00:23;59.20;;;25.77;;
18623;SDS011;9441;51.420;7.036;2022-12-07T06:01:25;63.90;;;25.33;;
18623;SDS011;9441;51.420;7.036;2022-12-07T06:02:26;67.60;;;27.23;;
18623;SDS011;9441;51.420;7.036;2022-12-07T06:03:28;66.50;;;26.27;;
18623;SDS011;9441;51.420;7.036;2022-12-07T06:04:29;75.83;;;26.50;;
18623;SDS011;9441;51.420;7.036;2022-12-07T06:05:34;61.37;;;25.17;;
18623;SDS011;9441;51.420;7.036;2022-12-07T06:06:35;62.43;;;25.57;;
18623;SDS011;9441;51.420;7.036;2022-12-07T06:07:38;73.23;;;25.83;;
18623;SDS011;9441;51.420;7.036;2022-12-07T06:08:40;59.63;;;24.60;;
18623;SDS011;9441;51.420;7.036;2022-12-07T06:09:41;53.47;;;22.70;;
18623;SDS011;9441;51.420;7.036;2022-12-07T06:10:42;54.63;;;22.63;;
18623;SDS011;9441;51.420;7.036;2022-12-07T06:11:44;55.53;;;23.40;;
18623;SDS011;9441;51.420;7.036;2022-12-07T06:13:03;54.00;;;22.27;;
18623;SDS011;9441;51.420;7.036;2022-12-07T06:14:04;62.47;;;22.77;;
18623;SDS011;9441;51.420;7.036;2022-12-07T06:15:07;53.07;;;22.10;;
18623;SDS011;9441;51.420;7.036;2022-12-07T06:16:10;48.33;;;20.00;;
18623;SDS011;9441;51.420;7.036;2022-12-07T06:17:11;57.43;;;22.20;;
18623;SDS011;9441;51.420;7.036;2022-12-07T06:18:13;59.40;;;22.80;;
18623;SDS011;9441;51.420;7.036;2022-12-07T06:19:14;51.53;;;21.97;;
18623;SDS011;9441;51.420;7.036;2022-12-07T06:20:17;61.57;;;23.57;;
18623;SDS011;9441;51.420;7.036;2022-12-07T06:21:19;52.60;;;23.20;;
18623;SDS011;9441;51.420;7.036;2022-12-07T06:22:21;53.63;;;22.40;;